createdAt,value
2018-12-21T00:01:10.363Z,96722.05
2018-12-21T00:03:37.767Z,96715.51
2018-12-21T00:06:05.711Z,96725.98
2018-12-21T00:08:33.097Z,96718.13
2018-12-21T00:11:00.487Z,96714.68
2018-12-21T00:13:27.928Z,96720.73
2018-12-21T00:15:55.315Z,96719.43
2018-12-21T00:18:22.716Z,96721.67
2018-12-21T00:20:50.332Z,96724.78
2018-12-21T00:23:17.727Z,96719.55
2018-12-21T00:25:45.780Z,96708.59
2018-12-21T00:28:13.307Z,96704.33
2018-12-21T00:30:40.195Z,96704.33
2018-12-21T00:33:13.186Z,96709.08
2018-12-21T00:35:47.043Z,96701.81
2018-12-21T00:38:20.135Z,96706.45
2018-12-21T00:40:53.533Z,96696.47
2018-12-21T00:43:25.279Z,96701.70
2018-12-21T00:45:54.733Z,96696.95
2018-12-21T00:48:22.502Z,96697.41
2018-12-21T00:50:50.095Z,96704.92
2018-12-21T00:53:17.799Z,96701.33
2018-12-21T00:55:45.245Z,96689.22
2018-12-21T00:58:12.699Z,96695.16
2018-12-21T01:00:40.254Z,96702.05
2018-12-21T01:03:07.655Z,96697.30
2018-12-21T01:05:35.740Z,96699.69
2018-12-21T01:08:03.652Z,96697.06
2018-12-21T01:10:31.103Z,96688.73
2018-12-21T01:12:58.624Z,96685.63
2018-12-21T01:15:26.303Z,96689.55
2018-12-21T01:17:53.927Z,96686.00
2018-12-21T01:20:21.851Z,96683.87
2018-12-21T01:22:49.315Z,96682.08
2018-12-21T01:25:16.715Z,96680.17
2018-12-21T01:27:44.105Z,96681.23
2018-12-21T01:30:11.519Z,96674.83
2018-12-21T01:32:38.927Z,96662.45
2018-12-21T01:35:06.384Z,96673.27
2018-12-21T01:37:33.855Z,96675.40
2018-12-21T01:40:01.247Z,96672.92
2018-12-21T01:42:29.291Z,96688.62
2018-12-21T01:44:56.827Z,96690.05
2018-12-21T01:47:24.223Z,96689.56
2018-12-21T01:49:51.617Z,96690.05
2018-12-21T01:52:19.077Z,96679.69
2018-12-21T01:54:46.471Z,96682.91
2018-12-21T01:57:14.060Z,96679.92
2018-12-21T01:59:41.481Z,96689.08
2018-12-21T02:02:09.174Z,96689.56
2018-12-21T02:04:36.564Z,96683.50
2018-12-21T02:07:04.053Z,96680.52
2018-12-21T02:09:32.257Z,96673.97
2018-12-21T02:11:59.840Z,96685.41
2018-12-21T02:14:27.440Z,96685.75
2018-12-21T02:16:55.056Z,96681.71
2018-12-21T02:19:22.452Z,96689.08
2018-12-21T02:21:55.861Z,96685.41
2018-12-21T02:24:19.628Z,96682.56
2018-12-21T02:26:47.708Z,96672.80
2018-12-21T02:29:15.282Z,96670.78
2018-12-21T02:31:42.716Z,96675.30
2018-12-21T02:34:10.098Z,96675.30
2018-12-21T02:36:37.552Z,96671.23
2018-12-21T02:39:06.069Z,96672.42
2018-12-21T02:41:34.402Z,96663.16
2018-12-21T02:44:01.912Z,96670.41
2018-12-21T02:46:29.586Z,96666.97
2018-12-21T02:48:57.174Z,96669.59
2018-12-21T02:51:24.957Z,96666.48
2018-12-21T02:53:52.344Z,96668.99
2018-12-21T02:56:19.741Z,96679.80
2018-12-21T02:58:47.385Z,96675.77
2018-12-21T03:01:14.891Z,96676.14
2018-12-21T03:03:42.279Z,96663.16
2018-12-21T03:06:09.871Z,96671.95
2018-12-21T03:08:37.320Z,96672.09
2018-12-21T03:11:05.193Z,96664.35
2018-12-21T03:13:32.759Z,96663.05
2018-12-21T03:16:00.456Z,96663.75
2018-12-21T03:18:27.855Z,96668.50
2018-12-21T03:20:55.272Z,96668.16
2018-12-21T03:23:23.317Z,96665.55
2018-12-21T03:25:51.058Z,96664.23
2018-12-21T03:28:18.483Z,96654.36
2018-12-21T03:30:45.878Z,96651.60
2018-12-21T03:33:13.280Z,96662.92
2018-12-21T03:35:40.898Z,96660.20
2018-12-21T03:38:08.383Z,96651.59
2018-12-21T03:40:35.783Z,96647.10
2018-12-21T03:43:03.474Z,96641.98
2018-12-21T03:45:30.867Z,96644.00
2018-12-21T03:47:58.268Z,96637.23
2018-12-21T03:50:25.678Z,96634.72
2018-12-21T03:52:53.101Z,96637.56
2018-12-21T03:55:20.545Z,96637.67
2018-12-21T03:57:48.004Z,96635.65
2018-12-21T04:00:16.007Z,96635.31
2018-12-21T04:02:43.596Z,96623.30
2018-12-21T04:05:11.189Z,96626.86
2018-12-21T04:07:38.584Z,96618.78
2018-12-21T04:10:06.040Z,96621.51
2018-12-21T04:12:33.468Z,96618.41
2018-12-21T04:15:00.859Z,96610.56
2018-12-21T04:17:29.147Z,96618.78
2018-12-21T04:19:56.827Z,96619.50
2018-12-21T04:22:33.785Z,96622.00
2018-12-21T04:24:53.714Z,96605.34
2018-12-21T04:27:21.133Z,96600.59
2018-12-21T04:29:48.529Z,96613.78
2018-12-21T04:32:15.926Z,96607.72
2018-12-21T04:34:43.442Z,96599.98
2018-12-21T04:37:10.834Z,96605.70
2018-12-21T04:39:38.225Z,96589.64
2018-12-21T04:42:05.667Z,96592.84
2018-12-21T04:44:33.059Z,96610.67
2018-12-21T04:47:00.990Z,96586.42
2018-12-21T04:49:28.555Z,96575.84
2018-12-21T04:51:55.944Z,96570.62
2018-12-21T04:54:23.344Z,96572.75
2018-12-21T04:56:51.037Z,96568.00
2018-12-21T04:59:18.427Z,96555.75
2018-12-21T05:01:45.831Z,96552.68
2018-12-21T05:04:19.879Z,96549.92
2018-12-21T05:06:43.405Z,96547.67
2018-12-21T05:09:10.857Z,96536.02
2018-12-21T05:11:38.374Z,96539.13
2018-12-21T05:14:07.901Z,96523.77
2018-12-21T05:16:35.163Z,96524.14
2018-12-21T05:19:02.801Z,96514.16
2018-12-21T05:21:30.235Z,96520.44
2018-12-21T05:23:57.627Z,96514.76
2018-12-21T05:26:25.129Z,96494.77
2018-12-21T05:28:52.508Z,96500.83
2018-12-21T05:31:28.077Z,96491.33
2018-12-21T05:33:49.329Z,96479.08
2018-12-21T05:36:16.884Z,96469.44
2018-12-21T05:38:44.280Z,96480.75
2018-12-21T05:41:11.953Z,96482.52
2018-12-21T05:43:39.740Z,96481.46
2018-12-21T05:46:07.160Z,96463.27
2018-12-21T05:48:34.825Z,96455.77
2018-12-21T05:51:02.219Z,96472.05
2018-12-21T05:53:29.608Z,96446.98
2018-12-21T05:55:57.192Z,96442.94
2018-12-21T05:58:24.600Z,96452.80
2018-12-21T06:00:51.990Z,96446.14
2018-12-21T06:03:19.458Z,96420.32
2018-12-21T06:05:46.929Z,96431.27
2018-12-21T06:08:14.326Z,96416.06
2018-12-21T06:10:42.033Z,96425.22
2018-12-21T06:13:09.424Z,96429.59
2018-12-21T06:15:37.412Z,96422.00
2018-12-21T06:18:05.100Z,96412.70
2018-12-21T06:20:32.553Z,96428.05
2018-12-21T06:23:00.033Z,96423.76
2018-12-21T06:25:27.730Z,96424.25
2018-12-21T06:27:55.116Z,96408.55
2018-12-21T06:30:22.816Z,96414.16
2018-12-21T06:32:50.274Z,96399.88
2018-12-21T06:35:17.986Z,96410.83
2018-12-21T06:37:45.396Z,96402.61
2018-12-21T06:40:13.049Z,96399.77
2018-12-21T06:42:40.770Z,96388.83
2018-12-21T06:45:08.281Z,96403.22
2018-12-21T06:47:35.834Z,96387.16
2018-12-21T06:50:04.074Z,96374.92
2018-12-21T06:52:31.459Z,96361.00
2018-12-21T06:54:59.224Z,96371.13
2018-12-21T06:57:26.684Z,96366.71
2018-12-21T06:59:54.086Z,96359.69
2018-12-21T07:02:21.512Z,96355.31
2018-12-21T07:04:49.315Z,96363.49
2018-12-21T07:07:16.703Z,96358.14
2018-12-21T07:09:44.280Z,96342.94
2018-12-21T07:12:11.684Z,96351.97
2018-12-21T07:14:39.089Z,96354.44
2018-12-21T07:17:06.855Z,96352.19
2018-12-21T07:19:34.251Z,96351.47
2018-12-21T07:22:01.654Z,96376.66
2018-12-21T07:24:29.227Z,96355.84
2018-12-21T07:26:56.623Z,96362.05
2018-12-21T07:29:24.799Z,96391.21
2018-12-21T07:31:52.891Z,96378.48
2018-12-21T07:34:20.283Z,96380.52
2018-12-21T07:36:47.734Z,96363.17
2018-12-21T07:39:15.439Z,96370.77
2018-12-21T07:41:43.019Z,96352.34
2018-12-21T07:44:10.422Z,96357.09
2018-12-21T07:46:37.880Z,96364.11
2018-12-21T07:49:05.274Z,96366.61
2018-12-21T07:51:32.665Z,96365.79
2018-12-21T07:54:00.243Z,96368.73
2018-12-21T07:56:27.635Z,96355.33
2018-12-21T07:58:57.318Z,96351.73
2018-12-21T08:01:24.560Z,96367.44
2018-12-21T08:03:51.968Z,96371.23
2018-12-21T08:06:20.216Z,96369.55
2018-12-21T08:08:47.754Z,96361.12
2018-12-21T08:11:15.203Z,96368.10
2018-12-21T08:13:43.017Z,96372.03
2018-12-21T08:16:10.529Z,96373.00
2018-12-21T08:18:37.923Z,96370.02
2018-12-21T08:21:05.327Z,96374.42
2018-12-21T08:23:32.743Z,96379.76
2018-12-21T08:26:00.141Z,96369.00
2018-12-21T08:28:27.539Z,96380.64
2018-12-21T08:30:55.451Z,96373.74
2018-12-21T08:33:22.910Z,96374.66
2018-12-21T08:35:50.431Z,96381.67
2018-12-21T08:38:18.148Z,96375.07
2018-12-21T08:40:45.545Z,96377.11
2018-12-21T08:43:13.463Z,96368.65
2018-12-21T08:45:41.135Z,96366.58
2018-12-21T08:48:08.722Z,96378.48
2018-12-21T08:50:36.317Z,96356.78
2018-12-21T08:53:04.021Z,96370.12
2018-12-21T08:55:31.424Z,96369.62
2018-12-21T08:57:58.826Z,96372.73
2018-12-21T09:00:26.287Z,96354.41
2018-12-21T09:02:54.299Z,96367.22
2018-12-21T09:05:21.698Z,96365.06
2018-12-21T09:07:49.270Z,96351.72
2018-12-21T09:10:16.979Z,96354.55
2018-12-21T09:12:44.377Z,96347.27
2018-12-21T09:15:12.769Z,96346.53
2018-12-21T09:17:40.170Z,96334.75
2018-12-21T09:20:10.289Z,96345.69
2018-12-21T09:22:38.009Z,96334.39
2018-12-21T09:25:05.531Z,96336.52
2018-12-21T09:27:32.948Z,96319.28
2018-12-21T09:30:01.707Z,96323.70
2018-12-21T09:32:29.103Z,96314.17
2018-12-21T09:34:56.489Z,96296.33
2018-12-21T09:37:23.903Z,96284.75
2018-12-21T09:39:51.509Z,96299.59
2018-12-21T09:42:19.183Z,96300.87
2018-12-21T09:44:52.478Z,96282.73
2018-12-21T09:47:16.052Z,96296.41
2018-12-21T09:49:43.448Z,96301.93
2018-12-21T09:52:11.169Z,96307.82
2018-12-21T09:54:38.638Z,96292.62
2018-12-21T09:57:06.020Z,96310.22
2018-12-21T09:59:33.635Z,96305.88
2018-12-21T10:02:01.157Z,96313.36
2018-12-21T10:04:28.636Z,96316.75
2018-12-21T10:06:56.429Z,96316.70
2018-12-21T10:09:23.818Z,96301.24
2018-12-21T10:11:51.235Z,96291.06
2018-12-21T10:14:18.908Z,96277.89
2018-12-21T10:16:46.303Z,96277.66
2018-12-21T10:19:13.692Z,96272.02
2018-12-21T10:21:41.140Z,96265.41
2018-12-21T10:24:08.516Z,96260.55
2018-12-21T10:26:36.628Z,96265.23
2018-12-21T10:29:04.261Z,96249.92
2018-12-21T10:31:31.916Z,96243.22
2018-12-21T10:33:59.306Z,96244.27
2018-12-21T10:36:26.941Z,96230.98
2018-12-21T10:38:54.644Z,96241.65
2018-12-21T10:41:22.100Z,96259.52
2018-12-21T10:43:49.614Z,96266.71
2018-12-21T10:46:17.365Z,96269.95
2018-12-21T10:48:44.752Z,96265.27
2018-12-21T10:51:12.284Z,96249.91
2018-12-21T10:53:39.767Z,96260.69
2018-12-21T10:56:07.979Z,96253.56
2018-12-21T10:58:35.428Z,96249.27
2018-12-21T11:01:02.880Z,96290.94
2018-12-21T11:03:30.732Z,96235.53
2018-12-21T11:05:58.265Z,96238.78
2018-12-21T11:08:25.913Z,96219.59
2018-12-21T11:10:53.351Z,96207.78
2018-12-21T11:13:20.936Z,96189.14
2018-12-21T11:15:48.342Z,96188.16
2018-12-21T11:18:15.756Z,96182.91
2018-12-21T11:20:43.308Z,96171.91
2018-12-21T11:23:10.713Z,96169.45
2018-12-21T11:25:38.121Z,96157.29
2018-12-21T11:28:05.895Z,96142.66
2018-12-21T11:30:33.704Z,96156.61
2018-12-21T11:33:01.112Z,96149.55
2018-12-21T11:35:28.535Z,96121.04
2018-12-21T11:37:55.965Z,96132.85
2018-12-21T11:40:23.364Z,96126.15
2018-12-21T11:42:51.030Z,96125.66
2018-12-21T11:45:18.428Z,96109.55
2018-12-21T11:47:45.973Z,96100.18
2018-12-21T11:50:14.069Z,96100.13
2018-12-21T11:52:41.460Z,96088.05
2018-12-21T11:55:08.867Z,96090.76
2018-12-21T11:57:36.288Z,96068.08
2018-12-21T12:00:05.523Z,96061.16
2018-12-21T12:02:32.995Z,96041.48
2018-12-21T12:05:00.690Z,96041.48
2018-12-21T12:07:28.081Z,96019.36
2018-12-21T12:09:55.968Z,95982.28
2018-12-21T12:12:23.431Z,95960.61
2018-12-21T12:14:50.840Z,95954.37
2018-12-21T12:17:18.828Z,95953.91
2018-12-21T12:19:47.190Z,95941.80
2018-12-21T12:22:14.594Z,95939.72
2018-12-21T12:24:41.984Z,95937.67
2018-12-21T12:27:09.512Z,95945.80
2018-12-21T12:29:37.016Z,95951.77
2018-12-21T12:32:04.462Z,95901.44
2018-12-21T12:34:32.031Z,95900.80
2018-12-21T12:36:59.423Z,95901.48
2018-12-21T12:39:26.827Z,95888.06
2018-12-21T12:41:54.507Z,95901.55
2018-12-21T12:44:21.901Z,95886.33
2018-12-21T12:46:49.305Z,95908.89
2018-12-21T12:49:16.727Z,95904.84
2018-12-21T12:51:44.128Z,95891.63
2018-12-21T12:54:11.524Z,95893.78
2018-12-21T12:56:39.125Z,95900.53
2018-12-21T12:59:06.546Z,95887.25
2018-12-21T13:01:33.929Z,95882.84
2018-12-21T13:04:01.608Z,95885.81
2018-12-21T13:06:29.056Z,95886.49
2018-12-21T13:08:56.500Z,95879.63
2018-12-21T13:11:24.142Z,95882.45
2018-12-21T13:13:51.902Z,95907.94
2018-12-21T13:16:19.300Z,95895.33
2018-12-21T13:18:46.748Z,95890.22
2018-12-21T13:21:14.140Z,95876.41
2018-12-21T13:23:41.536Z,95861.44
2018-12-21T13:26:09.000Z,95873.76
2018-12-21T13:28:36.542Z,95848.95
2018-12-21T13:31:04.021Z,95843.55
2018-12-21T13:33:31.691Z,95851.43
2018-12-21T13:35:59.393Z,95856.04
2018-12-21T13:38:26.804Z,95849.84
2018-12-21T13:40:54.484Z,95870.54
2018-12-21T13:43:21.885Z,95859.71
2018-12-21T13:45:49.796Z,95867.91
2018-12-21T13:48:17.232Z,95873.69
2018-12-21T13:50:44.902Z,95901.80
2018-12-21T13:53:12.605Z,95917.44
2018-12-21T13:55:40.148Z,95918.28
2018-12-21T13:58:07.956Z,95896.31
2018-12-21T14:00:35.354Z,95898.64
2018-12-21T14:03:02.763Z,95907.24
2018-12-21T14:05:30.461Z,95894.64
2018-12-21T14:07:57.848Z,95908.97
2018-12-21T14:10:25.304Z,95904.04
2018-12-21T14:12:52.697Z,95897.31
2018-12-21T14:15:20.089Z,95897.62
2018-12-21T14:17:47.784Z,95900.75
2018-12-21T14:20:15.197Z,95898.28
2018-12-21T14:22:43.509Z,95900.30
2018-12-21T14:25:11.040Z,95892.41
2018-12-21T14:27:38.436Z,95886.13
2018-12-21T14:30:07.452Z,95888.89
2018-12-21T14:32:35.073Z,95899.55
2018-12-21T14:35:03.375Z,95888.84
2018-12-21T14:37:30.771Z,95894.55
2018-12-21T14:39:58.374Z,95913.90
2018-12-21T14:42:25.819Z,95928.12
2018-12-21T14:44:53.216Z,95922.67
2018-12-21T14:47:20.941Z,95932.63
2018-12-21T14:49:48.331Z,95945.22
2018-12-21T14:52:15.730Z,95944.84
2018-12-21T14:54:43.317Z,95929.86
2018-12-21T14:57:11.638Z,95942.00
2018-12-21T14:59:39.032Z,95925.89
2018-12-21T15:02:06.599Z,95929.66
2018-12-21T15:04:34.407Z,95927.84
2018-12-21T15:07:01.820Z,95932.75
2018-12-21T15:09:29.589Z,95929.30
2018-12-21T15:11:57.100Z,95933.06
2018-12-21T15:14:24.604Z,95930.09
2018-12-21T15:16:52.036Z,95941.59
2018-12-21T15:19:20.159Z,95943.72
2018-12-21T15:21:47.566Z,95948.16
2018-12-21T15:24:15.364Z,95944.70
2018-12-21T15:26:42.760Z,95945.53
2018-12-21T15:29:10.151Z,95938.17
2018-12-21T15:31:37.827Z,95947.37
2018-12-21T15:34:05.232Z,95934.91
2018-12-21T15:36:33.203Z,95928.87
2018-12-21T15:39:00.832Z,95939.41
2018-12-21T15:41:28.226Z,95933.16
2018-12-21T15:43:55.618Z,95948.92
2018-12-21T15:46:23.184Z,95935.81
2018-12-21T15:48:50.574Z,95937.48
2018-12-21T15:51:17.994Z,95937.80
2018-12-21T15:53:45.423Z,95944.22
2018-12-21T15:56:12.816Z,95949.05
2018-12-21T15:58:40.800Z,95955.64
2018-12-21T16:01:08.219Z,95941.86
2018-12-21T16:03:35.944Z,95945.80
2018-12-21T16:06:03.352Z,95940.22
2018-12-21T16:08:31.031Z,95956.66
2018-12-21T16:10:58.707Z,95967.52
2018-12-21T16:13:26.223Z,95952.42
2018-12-21T16:15:53.649Z,95955.72
2018-12-21T16:18:21.057Z,95969.51
2018-12-21T16:20:48.455Z,95955.55
2018-12-21T16:23:15.875Z,95961.63
2018-12-21T16:25:43.303Z,95961.16
2018-12-21T16:28:10.701Z,95966.94
2018-12-21T16:30:38.141Z,95971.08
2018-12-21T16:33:05.537Z,95971.78
2018-12-21T16:35:32.934Z,95984.28
2018-12-21T16:38:00.609Z,95981.82
2018-12-21T16:40:28.006Z,95983.48
2018-12-21T16:42:55.460Z,95987.95
2018-12-21T16:45:23.063Z,95987.98
2018-12-21T16:47:50.464Z,96001.59
2018-12-21T16:50:17.988Z,95997.65
2018-12-21T16:52:45.548Z,95993.91
2018-12-21T16:55:12.944Z,95992.41
2018-12-21T16:57:41.126Z,95989.17
2018-12-21T17:00:10.974Z,95994.38
2018-12-21T17:02:38.369Z,95983.53
2018-12-21T17:05:06.479Z,95991.74
2018-12-21T17:07:34.078Z,95992.59
2018-12-21T17:10:01.987Z,95981.08
2018-12-21T17:12:29.383Z,95982.91
2018-12-21T17:14:56.964Z,95984.58
2018-12-21T17:17:24.371Z,95969.47
2018-12-21T17:19:52.448Z,95975.05
2018-12-21T17:22:20.059Z,95990.84
2018-12-21T17:24:47.679Z,95984.64
2018-12-21T17:27:15.059Z,95979.70
2018-12-21T17:29:42.476Z,95987.94
2018-12-21T17:32:09.872Z,95986.63
2018-12-21T17:34:37.265Z,95986.48
2018-12-21T17:37:04.781Z,95999.30
2018-12-21T17:39:33.071Z,95990.94
2018-12-21T17:42:00.519Z,95991.27
2018-12-21T17:44:28.070Z,95988.48
2018-12-21T17:46:55.547Z,95993.08
2018-12-21T17:49:23.088Z,95984.66
2018-12-21T17:51:50.748Z,95996.33
2018-12-21T17:54:18.144Z,95984.30
2018-12-21T17:56:45.544Z,95980.18
2018-12-21T17:59:14.428Z,96004.84
2018-12-21T18:01:42.159Z,96002.36
2018-12-21T18:04:10.089Z,95980.31
2018-12-21T18:06:37.503Z,95993.28
2018-12-21T18:09:06.421Z,96003.95
2018-12-21T18:11:34.739Z,96004.59
2018-12-21T18:14:02.345Z,95994.38
2018-12-21T18:16:30.163Z,96011.95
2018-12-21T18:18:57.769Z,96020.98
2018-12-21T18:21:25.639Z,96017.69
2018-12-21T18:23:53.022Z,95994.67
2018-12-21T18:26:20.431Z,95999.41
2018-12-21T18:28:47.880Z,96003.17
2018-12-21T18:31:15.694Z,96009.89
2018-12-21T18:33:44.809Z,96000.84
2018-12-21T18:36:12.349Z,96005.42
2018-12-21T18:38:39.747Z,96021.20
2018-12-21T18:41:07.144Z,96017.11
2018-12-21T18:43:34.565Z,96016.91
2018-12-21T18:46:01.948Z,96021.52
2018-12-21T18:48:29.360Z,96016.27
2018-12-21T18:50:56.823Z,96015.47
2018-12-21T18:53:24.223Z,96013.34
2018-12-21T18:55:51.866Z,96003.17
2018-12-21T18:58:19.399Z,96008.08
2018-12-21T19:00:46.825Z,95985.06
2018-12-21T19:03:17.719Z,96005.75
2018-12-21T19:05:47.874Z,96003.78
2018-12-21T19:08:27.230Z,96000.98
2018-12-21T19:10:56.479Z,96006.73
2018-12-21T19:13:24.271Z,96015.44
2018-12-21T19:15:51.729Z,95998.50
2018-12-21T19:18:19.151Z,96001.48
2018-12-21T19:20:47.207Z,96008.38
2018-12-21T19:23:14.603Z,96005.60
2018-12-21T19:25:42.971Z,95999.17
2018-12-21T19:28:11.829Z,95996.87
2018-12-21T19:30:39.227Z,96003.30
2018-12-21T19:33:06.875Z,96006.24
2018-12-21T19:35:34.352Z,96026.62
2018-12-21T19:38:01.746Z,96021.52
2018-12-21T19:40:29.274Z,96024.00
2018-12-21T19:42:56.668Z,96018.77
2018-12-21T19:45:24.055Z,96030.45
2018-12-21T19:47:51.650Z,96025.38
2018-12-21T19:50:19.053Z,96014.70
2018-12-21T19:52:46.447Z,96043.98
2018-12-21T19:55:18.211Z,96032.47
2018-12-21T19:57:46.403Z,96024.76
2018-12-21T20:00:13.799Z,96018.98
2018-12-21T20:02:41.393Z,96013.52
2018-12-21T20:05:08.789Z,96029.64
2018-12-21T20:07:36.184Z,96037.38
2018-12-21T20:10:05.042Z,96042.00
2018-12-21T20:12:32.627Z,96029.17
2018-12-21T20:15:00.247Z,96034.28
2018-12-21T20:17:27.777Z,96034.95
2018-12-21T20:19:55.189Z,96026.92
2018-12-21T20:22:22.584Z,96034.66
2018-12-21T20:24:51.667Z,96034.16
2018-12-21T20:27:21.246Z,96034.98
2018-12-21T20:29:50.085Z,96033.52
2018-12-21T20:32:18.677Z,96026.59
2018-12-21T20:34:56.557Z,96028.23
2018-12-21T20:37:27.149Z,96038.61
2018-12-21T20:39:54.549Z,96050.11
2018-12-21T20:42:21.951Z,96043.92
2018-12-21T20:44:49.560Z,96050.20
2018-12-21T20:47:17.321Z,96062.36
2018-12-21T20:49:44.739Z,96039.33
2018-12-21T20:52:12.760Z,96036.35
2018-12-21T20:54:40.346Z,96027.00
2018-12-21T20:57:09.204Z,96051.84
2018-12-21T20:59:36.911Z,96049.56
2018-12-21T21:02:04.694Z,96053.00
2018-12-21T21:04:32.088Z,96031.47
2018-12-21T21:06:59.555Z,96048.41
2018-12-21T21:09:27.350Z,96034.12
2018-12-21T21:11:54.954Z,96042.36
2018-12-21T21:14:22.528Z,96031.70
2018-12-21T21:16:49.987Z,96031.05
2018-12-21T21:19:17.396Z,96024.30
2018-12-21T21:21:44.853Z,96036.31
2018-12-21T21:24:12.614Z,96036.98
2018-12-21T21:26:40.007Z,96043.05
2018-12-21T21:29:07.797Z,96046.36
2018-12-21T21:31:35.249Z,96037.65
2018-12-21T21:34:02.643Z,96045.54
2018-12-21T21:36:30.351Z,96047.82
2018-12-21T21:38:57.751Z,96050.45
2018-12-21T21:41:25.163Z,96080.20
2018-12-21T21:43:52.905Z,96064.92
2018-12-21T21:46:20.289Z,96036.98
2018-12-21T21:48:47.691Z,96046.50
2018-12-21T21:51:15.142Z,96065.59
2018-12-21T21:53:42.547Z,96058.05
2018-12-21T21:56:09.932Z,96055.06
2018-12-21T21:58:37.952Z,96050.16
2018-12-21T22:01:05.345Z,96050.66
2018-12-21T22:03:33.286Z,96067.25
2018-12-21T22:06:00.736Z,96043.08
2018-12-21T22:08:28.129Z,96040.80
2018-12-21T22:11:01.838Z,96022.19
2018-12-21T22:13:25.083Z,96028.76
2018-12-21T22:15:53.007Z,96037.15
2018-12-21T22:18:20.699Z,96023.83
2018-12-21T22:20:48.195Z,96019.21
2018-12-21T22:23:16.504Z,96036.95
2018-12-21T22:25:53.143Z,96024.77
2018-12-21T22:28:14.117Z,96027.55
2018-12-21T22:30:41.515Z,96018.69
2018-12-21T22:33:08.905Z,96023.28
2018-12-21T22:35:36.489Z,96019.63
2018-12-21T22:38:03.885Z,96020.95
2018-12-21T22:40:31.277Z,96021.30
2018-12-21T22:42:58.858Z,96021.97
2018-12-21T22:45:26.259Z,96023.75
2018-12-21T22:47:53.648Z,96018.84
2018-12-21T22:50:21.216Z,96023.59
2018-12-21T22:52:49.015Z,96022.13
2018-12-21T22:55:16.398Z,96008.98
2018-12-21T22:57:44.000Z,96010.65
2018-12-21T23:00:14.874Z,96017.05
2018-12-21T23:02:42.276Z,96020.53
2018-12-21T23:05:10.678Z,96002.93
2018-12-21T23:07:38.076Z,95994.39
2018-12-21T23:10:07.289Z,95989.97
2018-12-21T23:12:34.894Z,96009.25
2018-12-21T23:15:02.308Z,95994.30
2018-12-21T23:17:29.696Z,95993.35
2018-12-21T23:19:57.361Z,95989.42
2018-12-21T23:22:24.752Z,95999.97
2018-12-21T23:24:52.143Z,95993.25
2018-12-21T23:27:19.640Z,95995.75
2018-12-21T23:29:47.062Z,95987.05
2018-12-21T23:32:14.443Z,95985.08
2018-12-21T23:34:42.003Z,95989.03
2018-12-21T23:37:09.402Z,96000.22
2018-12-21T23:39:36.792Z,96000.07
2018-12-21T23:42:04.380Z,96013.55
2018-12-21T23:44:32.622Z,96000.55
2018-12-21T23:47:00.004Z,96016.53
2018-12-21T23:49:27.576Z,96006.16
2018-12-21T23:51:54.968Z,96010.60
2018-12-21T23:54:22.368Z,95998.56
2018-12-21T23:56:49.936Z,95994.45
2018-12-21T23:59:17.364Z,95999.86
